Andoya, Norway

6:32 AM CEST on July 08, 2015 (GMT +0200)
Andoya Air Base | | Change Station
CLOSE
Current Station
Airport
Location: Andoya,
Elevation: 43 ft
Nearby Weather Stations

Elev 43 ft 69.29 °N, 16.14 °E | Updated 12 minutes ago

Mostly Cloudy
Mostly Cloudy
45 °F
Feels Like 39 °F
N
12
Wind Variable Wind from North

Today
High -- | Low -- °F
--% Chance of Precip.
Yesterday
High -- | Low -- °F
Precip. -- in
1:00 AM 1:00 AM
Waning Gibbous, 58% visible
Pressure 29.53 in
Visibility 6.2 miles
Clouds Few 1500 ft
Scattered Clouds 2000 ft
Mostly Cloudy 20000 ft
Windchill 39 °F
Dew Point 39 °F
Humidity 81%
Rainfall 0.00 in
Snow Depth Not available.
UV 1 out of 12
Pollen Not available.
Air Quality Not available.
Flu Activity Not available.
METAR ENAN 080420Z 01010KT 9999 VCSH FEW015 SCT020 BKN200 07/04 Q1000

More Conditions Fewer Conditions

Pressure 29.53 in
Visibility 6.2 miles
Clouds Few 1500 ft
Scattered Clouds 2000 ft
Mostly Cloudy 20000 ft
Windchill 39 °F
Dew Point 39 °F
Humidity 81%
Rainfall 0.00 in
Snow Depth Not available.
UV 1 out of 12
Pollen Not available.
Air Quality Not available.
Flu Activity Not available.
METAR ENAN 080420Z 01010KT 9999 VCSH FEW015 SCT020 BKN200 07/04 Q1000

More Conditions Fewer Conditions

10-Day Weather Forecast

×

Almanac

Astronomy

Jul. 08, 2015 Rise Set
Actual Time
Civil Twilight
Nautical Twilight
Astronomical Twilight
Moon
Length of Visible Light
Length of Day
Tomorrow will be .
, % of the Moon is Illuminated

Today's Extremes

Country Highs Country Lows

Community

WunderPhotos

Upload Photos

1,836,055 photos uploaded!

WunderBlogs® & News

Nearby

Air Quality

  Air Quality AQ Index Pollutant
Not available.

Snow Depth

Station Depth Elevation

Earthquake Activity

City Distance Mag. Time & Date
Minimum magnitude displayed is 2.5.

Coastal Water Temperatures

Place Temperature

Stations

Nearby Weather Stations

Station Location Temp. Windchill Dew Point Humidity Wind Precip. Elev Updated Type